sensor_id;sensor_type;location;lat;lon;timestamp;P1;durP1;ratioP1;P2;durP2;ratioP2
73814;SDS011;62145;55.648;37.602;2023-04-01T00:00:16;20.95;;;8.07;;
73814;SDS011;62145;55.648;37.602;2023-04-01T00:02:43;22.13;;;7.20;;
73814;SDS011;62145;55.648;37.602;2023-04-01T00:05:09;21.65;;;8.10;;
73814;SDS011;62145;55.648;37.602;2023-04-01T00:07:36;19.27;;;8.02;;
73814;SDS011;62145;55.648;37.602;2023-04-01T00:10:03;20.50;;;7.60;;
73814;SDS011;62145;55.648;37.602;2023-04-01T00:12:29;23.10;;;8.02;;
73814;SDS011;62145;55.648;37.602;2023-04-01T00:14:55;28.30;;;11.57;;
73814;SDS011;62145;55.648;37.602;2023-04-01T00:17:21;20.80;;;9.17;;
73814;SDS011;62145;55.648;37.602;2023-04-01T00:19:47;20.88;;;8.10;;
73814;SDS011;62145;55.648;37.602;2023-04-01T00:22:13;18.55;;;7.85;;
73814;SDS011;62145;55.648;37.602;2023-04-01T00:24:39;18.02;;;7.60;;
73814;SDS011;62145;55.648;37.602;2023-04-01T00:27:05;19.50;;;7.70;;
73814;SDS011;62145;55.648;37.602;2023-04-01T00:29:32;20.85;;;7.90;;
73814;SDS011;62145;55.648;37.602;2023-04-01T00:31:58;16.60;;;7.28;;
73814;SDS011;62145;55.648;37.602;2023-04-01T00:34:23;18.73;;;7.80;;
73814;SDS011;62145;55.648;37.602;2023-04-01T00:36:49;19.45;;;8.25;;
73814;SDS011;62145;55.648;37.602;2023-04-01T00:39:17;19.30;;;7.68;;
73814;SDS011;62145;55.648;37.602;2023-04-01T00:41:44;17.70;;;7.60;;
73814;SDS011;62145;55.648;37.602;2023-04-01T00:44:29;20.42;;;8.25;;
73814;SDS011;62145;55.648;37.602;2023-04-01T00:46:57;17.15;;;6.80;;
73814;SDS011;62145;55.648;37.602;2023-04-01T00:49:23;19.10;;;7.73;;
73814;SDS011;62145;55.648;37.602;2023-04-01T00:52:01;18.58;;;7.00;;
73814;SDS011;62145;55.648;37.602;2023-04-01T00:54:28;18.48;;;7.47;;
73814;SDS011;62145;55.648;37.602;2023-04-01T00:56:56;20.77;;;7.78;;
73814;SDS011;62145;55.648;37.602;2023-04-01T00:59:26;17.33;;;7.17;;
73814;SDS011;62145;55.648;37.602;2023-04-01T01:01:55;18.35;;;7.75;;
73814;SDS011;62145;55.648;37.602;2023-04-01T01:04:21;16.88;;;7.40;;
73814;SDS011;62145;55.648;37.602;2023-04-01T01:10:18;18.13;;;7.33;;
73814;SDS011;62145;55.648;37.602;2023-04-01T01:15:56;17.15;;;7.13;;
73814;SDS011;62145;55.648;37.602;2023-04-01T01:21:46;16.13;;;6.90;;
73814;SDS011;62145;55.648;37.602;2023-04-01T01:27:16;18.42;;;7.18;;
73814;SDS011;62145;55.648;37.602;2023-04-01T01:37:55;17.93;;;7.27;;
73814;SDS011;62145;55.648;37.602;2023-04-01T01:40:24;18.13;;;8.02;;
73814;SDS011;62145;55.648;37.602;2023-04-01T01:42:51;18.65;;;7.32;;
73814;SDS011;62145;55.648;37.602;2023-04-01T01:45:21;17.52;;;7.18;;
73814;SDS011;62145;55.648;37.602;2023-04-01T01:47:49;18.08;;;7.20;;
73814;SDS011;62145;55.648;37.602;2023-04-01T01:50:16;19.93;;;8.10;;
73814;SDS011;62145;55.648;37.602;2023-04-01T01:52:43;17.33;;;7.30;;
73814;SDS011;62145;55.648;37.602;2023-04-01T01:55:29;16.35;;;7.32;;
73814;SDS011;62145;55.648;37.602;2023-04-01T01:58:00;19.52;;;8.00;;
73814;SDS011;62145;55.648;37.602;2023-04-01T02:00:30;17.63;;;7.20;;
73814;SDS011;62145;55.648;37.602;2023-04-01T02:02:58;19.80;;;7.70;;
73814;SDS011;62145;55.648;37.602;2023-04-01T02:05:24;18.52;;;7.70;;
73814;SDS011;62145;55.648;37.602;2023-04-01T02:08:07;18.48;;;8.00;;
73814;SDS011;62145;55.648;37.602;2023-04-01T02:10:37;17.08;;;7.50;;
73814;SDS011;62145;55.648;37.602;2023-04-01T02:13:12;21.50;;;8.27;;
73814;SDS011;62145;55.648;37.602;2023-04-01T02:15:45;17.60;;;7.43;;
73814;SDS011;62145;55.648;37.602;2023-04-01T02:18:13;19.08;;;8.20;;
73814;SDS011;62145;55.648;37.602;2023-04-01T02:20:40;20.10;;;8.35;;
73814;SDS011;62145;55.648;37.602;2023-04-01T02:23:06;19.40;;;7.85;;
73814;SDS011;62145;55.648;37.602;2023-04-01T02:25:34;20.67;;;7.97;;
73814;SDS011;62145;55.648;37.602;2023-04-01T02:28:00;18.33;;;7.53;;
73814;SDS011;62145;55.648;37.602;2023-04-01T02:30:27;19.85;;;8.48;;
73814;SDS011;62145;55.648;37.602;2023-04-01T02:32:55;20.20;;;8.35;;
73814;SDS011;62145;55.648;37.602;2023-04-01T02:35:22;18.92;;;7.38;;
73814;SDS011;62145;55.648;37.602;2023-04-01T02:37:49;17.87;;;7.57;;
73814;SDS011;62145;55.648;37.602;2023-04-01T02:40:15;20.77;;;8.20;;
73814;SDS011;62145;55.648;37.602;2023-04-01T02:42:41;19.52;;;8.20;;
73814;SDS011;62145;55.648;37.602;2023-04-01T02:45:07;19.88;;;8.10;;
73814;SDS011;62145;55.648;37.602;2023-04-01T02:47:34;18.50;;;7.67;;
73814;SDS011;62145;55.648;37.602;2023-04-01T02:50:00;18.23;;;8.15;;
73814;SDS011;62145;55.648;37.602;2023-04-01T02:52:26;18.77;;;7.53;;
73814;SDS011;62145;55.648;37.602;2023-04-01T02:54:54;19.23;;;7.93;;
73814;SDS011;62145;55.648;37.602;2023-04-01T02:57:21;19.73;;;7.80;;
73814;SDS011;62145;55.648;37.602;2023-04-01T02:59:46;19.00;;;8.07;;
73814;SDS011;62145;55.648;37.602;2023-04-01T03:02:12;19.45;;;7.60;;
73814;SDS011;62145;55.648;37.602;2023-04-01T03:04:39;17.67;;;7.10;;
73814;SDS011;62145;55.648;37.602;2023-04-01T03:07:05;17.60;;;7.03;;
73814;SDS011;62145;55.648;37.602;2023-04-01T03:09:31;18.38;;;7.65;;
73814;SDS011;62145;55.648;37.602;2023-04-01T03:11:56;17.70;;;7.53;;
73814;SDS011;62145;55.648;37.602;2023-04-01T03:14:22;18.87;;;6.90;;
73814;SDS011;62145;55.648;37.602;2023-04-01T03:16:48;19.10;;;8.05;;
73814;SDS011;62145;55.648;37.602;2023-04-01T03:19:14;18.35;;;7.65;;
73814;SDS011;62145;55.648;37.602;2023-04-01T03:21:40;16.83;;;7.13;;
73814;SDS011;62145;55.648;37.602;2023-04-01T03:24:06;17.63;;;7.30;;
73814;SDS011;62145;55.648;37.602;2023-04-01T03:26:33;17.00;;;6.73;;
73814;SDS011;62145;55.648;37.602;2023-04-01T03:28:58;17.38;;;7.22;;
73814;SDS011;62145;55.648;37.602;2023-04-01T03:31:24;17.17;;;7.50;;
73814;SDS011;62145;55.648;37.602;2023-04-01T03:33:54;16.80;;;7.40;;
73814;SDS011;62145;55.648;37.602;2023-04-01T03:36:21;17.73;;;7.17;;
73814;SDS011;62145;55.648;37.602;2023-04-01T03:38:47;16.30;;;7.43;;
73814;SDS011;62145;55.648;37.602;2023-04-01T03:41:18;16.83;;;6.93;;
73814;SDS011;62145;55.648;37.602;2023-04-01T03:43:44;15.82;;;6.60;;
73814;SDS011;62145;55.648;37.602;2023-04-01T03:46:10;15.45;;;6.80;;
73814;SDS011;62145;55.648;37.602;2023-04-01T03:48:36;16.80;;;7.00;;
73814;SDS011;62145;55.648;37.602;2023-04-01T03:51:06;17.05;;;6.85;;
73814;SDS011;62145;55.648;37.602;2023-04-01T03:53:32;16.50;;;6.60;;
73814;SDS011;62145;55.648;37.602;2023-04-01T03:56:04;16.27;;;7.20;;
73814;SDS011;62145;55.648;37.602;2023-04-01T03:58:31;15.20;;;6.73;;
73814;SDS011;62145;55.648;37.602;2023-04-01T04:00:57;17.77;;;7.22;;
73814;SDS011;62145;55.648;37.602;2023-04-01T04:03:23;15.02;;;6.57;;
73814;SDS011;62145;55.648;37.602;2023-04-01T04:05:49;19.52;;;7.22;;
73814;SDS011;62145;55.648;37.602;2023-04-01T04:08:16;18.42;;;7.10;;
73814;SDS011;62145;55.648;37.602;2023-04-01T04:10:43;15.60;;;6.68;;
73814;SDS011;62145;55.648;37.602;2023-04-01T04:13:27;15.52;;;6.60;;
73814;SDS011;62145;55.648;37.602;2023-04-01T04:15:59;16.92;;;6.97;;
73814;SDS011;62145;55.648;37.602;2023-04-01T04:18:24;16.37;;;7.03;;
73814;SDS011;62145;55.648;37.602;2023-04-01T04:20:50;17.10;;;7.15;;
73814;SDS011;62145;55.648;37.602;2023-04-01T04:23:17;16.70;;;7.33;;
73814;SDS011;62145;55.648;37.602;2023-04-01T04:25:56;15.88;;;6.90;;
73814;SDS011;62145;55.648;37.602;2023-04-01T04:28:25;15.90;;;6.78;;
73814;SDS011;62145;55.648;37.602;2023-04-01T04:30:52;18.58;;;7.85;;
73814;SDS011;62145;55.648;37.602;2023-04-01T04:33:19;18.15;;;7.57;;
73814;SDS011;62145;55.648;37.602;2023-04-01T04:35:45;16.50;;;6.93;;
73814;SDS011;62145;55.648;37.602;2023-04-01T04:38:11;17.27;;;7.35;;
73814;SDS011;62145;55.648;37.602;2023-04-01T04:40:37;15.70;;;6.72;;
73814;SDS011;62145;55.648;37.602;2023-04-01T04:43:03;16.40;;;6.97;;
73814;SDS011;62145;55.648;37.602;2023-04-01T04:45:29;16.75;;;6.97;;
73814;SDS011;62145;55.648;37.602;2023-04-01T04:47:56;15.98;;;7.10;;
73814;SDS011;62145;55.648;37.602;2023-04-01T04:50:22;18.58;;;7.35;;
73814;SDS011;62145;55.648;37.602;2023-04-01T04:52:48;16.20;;;6.50;;
73814;SDS011;62145;55.648;37.602;2023-04-01T04:55:14;14.90;;;6.85;;
73814;SDS011;62145;55.648;37.602;2023-04-01T04:57:43;18.75;;;7.10;;
73814;SDS011;62145;55.648;37.602;2023-04-01T05:00:09;16.23;;;6.45;;
73814;SDS011;62145;55.648;37.602;2023-04-01T05:02:56;15.50;;;6.60;;
73814;SDS011;62145;55.648;37.602;2023-04-01T05:05:22;17.10;;;7.60;;
73814;SDS011;62145;55.648;37.602;2023-04-01T05:07:48;15.63;;;7.07;;
73814;SDS011;62145;55.648;37.602;2023-04-01T05:10:14;16.63;;;7.53;;
73814;SDS011;62145;55.648;37.602;2023-04-01T05:12:40;15.57;;;6.87;;
73814;SDS011;62145;55.648;37.602;2023-04-01T05:15:08;14.48;;;6.65;;
73814;SDS011;62145;55.648;37.602;2023-04-01T05:17:34;15.90;;;6.95;;
73814;SDS011;62145;55.648;37.602;2023-04-01T05:20:02;17.10;;;7.15;;
73814;SDS011;62145;55.648;37.602;2023-04-01T05:22:28;18.65;;;7.75;;
73814;SDS011;62145;55.648;37.602;2023-04-01T05:24:54;16.33;;;6.80;;
73814;SDS011;62145;55.648;37.602;2023-04-01T05:27:21;17.65;;;7.20;;
73814;SDS011;62145;55.648;37.602;2023-04-01T05:29:47;16.55;;;6.85;;
73814;SDS011;62145;55.648;37.602;2023-04-01T05:32:45;17.08;;;7.25;;
73814;SDS011;62145;55.648;37.602;2023-04-01T05:35:10;20.50;;;7.40;;
73814;SDS011;62145;55.648;37.602;2023-04-01T05:37:36;15.00;;;6.88;;
73814;SDS011;62145;55.648;37.602;2023-04-01T05:40:03;17.10;;;7.20;;
73814;SDS011;62145;55.648;37.602;2023-04-01T05:42:30;19.00;;;7.53;;
73814;SDS011;62145;55.648;37.602;2023-04-01T05:44:55;17.33;;;7.67;;
73814;SDS011;62145;55.648;37.602;2023-04-01T05:47:50;18.88;;;7.78;;
73814;SDS011;62145;55.648;37.602;2023-04-01T05:50:17;17.75;;;7.65;;
73814;SDS011;62145;55.648;37.602;2023-04-01T05:52:43;17.60;;;7.68;;
73814;SDS011;62145;55.648;37.602;2023-04-01T05:55:09;17.83;;;7.88;;
73814;SDS011;62145;55.648;37.602;2023-04-01T05:57:35;21.45;;;8.55;;
73814;SDS011;62145;55.648;37.602;2023-04-01T06:00:03;17.52;;;7.90;;
73814;SDS011;62145;55.648;37.602;2023-04-01T06:02:37;20.63;;;7.80;;
73814;SDS011;62145;55.648;37.602;2023-04-01T06:05:24;18.85;;;7.75;;
73814;SDS011;62145;55.648;37.602;2023-04-01T06:08:01;18.52;;;7.47;;
73814;SDS011;62145;55.648;37.602;2023-04-01T06:16:26;18.97;;;7.57;;
73814;SDS011;62145;55.648;37.602;2023-04-01T06:21:55;20.17;;;8.18;;
73814;SDS011;62145;55.648;37.602;2023-04-01T06:54:13;25.23;;;9.85;;
73814;SDS011;62145;55.648;37.602;2023-04-01T06:57:09;25.50;;;9.18;;
73814;SDS011;62145;55.648;37.602;2023-04-01T06:59:58;27.55;;;9.80;;
73814;SDS011;62145;55.648;37.602;2023-04-01T07:02:28;27.65;;;9.98;;
73814;SDS011;62145;55.648;37.602;2023-04-01T07:05:03;25.98;;;9.88;;
73814;SDS011;62145;55.648;37.602;2023-04-01T07:07:35;23.13;;;8.98;;
73814;SDS011;62145;55.648;37.602;2023-04-01T07:10:17;24.67;;;9.15;;
73814;SDS011;62145;55.648;37.602;2023-04-01T07:13:04;26.33;;;10.00;;
73814;SDS011;62145;55.648;37.602;2023-04-01T07:15:56;21.63;;;8.93;;
73814;SDS011;62145;55.648;37.602;2023-04-01T07:18:46;24.17;;;9.48;;
73814;SDS011;62145;55.648;37.602;2023-04-01T07:21:29;26.75;;;10.27;;
73814;SDS011;62145;55.648;37.602;2023-04-01T07:24:00;28.98;;;10.95;;
73814;SDS011;62145;55.648;37.602;2023-04-01T07:26:56;27.77;;;10.82;;
73814;SDS011;62145;55.648;37.602;2023-04-01T07:29:26;25.52;;;10.10;;
73814;SDS011;62145;55.648;37.602;2023-04-01T07:44:02;23.63;;;9.45;;
73814;SDS011;62145;55.648;37.602;2023-04-01T07:47:01;22.40;;;9.43;;
73814;SDS011;62145;55.648;37.602;2023-04-01T07:52:43;21.70;;;9.55;;
73814;SDS011;62145;55.648;37.602;2023-04-01T07:55:22;20.98;;;9.32;;
73814;SDS011;62145;55.648;37.602;2023-04-01T07:57:56;21.77;;;9.65;;
73814;SDS011;62145;55.648;37.602;2023-04-01T08:08:46;20.15;;;8.85;;
73814;SDS011;62145;55.648;37.602;2023-04-01T08:12:01;20.25;;;8.57;;
73814;SDS011;62145;55.648;37.602;2023-04-01T08:14:56;18.02;;;8.40;;
73814;SDS011;62145;55.648;37.602;2023-04-01T08:20:57;17.70;;;9.13;;
73814;SDS011;62145;55.648;37.602;2023-04-01T08:28:59;19.13;;;9.15;;
73814;SDS011;62145;55.648;37.602;2023-04-01T08:31:43;19.25;;;9.02;;
73814;SDS011;62145;55.648;37.602;2023-04-01T08:34:24;21.10;;;9.90;;
73814;SDS011;62145;55.648;37.602;2023-04-01T08:37:14;20.65;;;9.65;;
73814;SDS011;62145;55.648;37.602;2023-04-01T08:39:46;23.97;;;11.27;;
73814;SDS011;62145;55.648;37.602;2023-04-01T08:47:46;20.33;;;9.57;;
73814;SDS011;62145;55.648;37.602;2023-04-01T09:21:01;13.30;;;6.95;;
73814;SDS011;62145;55.648;37.602;2023-04-01T09:54:58;12.27;;;5.82;;
73814;SDS011;62145;55.648;37.602;2023-04-01T10:00:49;11.13;;;4.60;;
73814;SDS011;62145;55.648;37.602;2023-04-01T10:06:04;12.35;;;5.57;;
73814;SDS011;62145;55.648;37.602;2023-04-01T10:22:27;10.43;;;4.78;;
73814;SDS011;62145;55.648;37.602;2023-04-01T10:36:53;9.70;;;3.95;;
73814;SDS011;62145;55.648;37.602;2023-04-01T10:54:12;8.23;;;4.05;;
73814;SDS011;62145;55.648;37.602;2023-04-01T10:57:19;8.73;;;4.25;;
73814;SDS011;62145;55.648;37.602;2023-04-01T11:43:18;8.20;;;3.60;;
73814;SDS011;62145;55.648;37.602;2023-04-01T11:46:36;8.77;;;3.67;;
73814;SDS011;62145;55.648;37.602;2023-04-01T11:52:31;8.77;;;3.50;;
73814;SDS011;62145;55.648;37.602;2023-04-01T12:06:40;7.70;;;3.08;;
73814;SDS011;62145;55.648;37.602;2023-04-01T12:16:52;8.80;;;4.07;;
73814;SDS011;62145;55.648;37.602;2023-04-01T12:42:55;13.35;;;5.05;;
73814;SDS011;62145;55.648;37.602;2023-04-01T12:53:33;14.80;;;5.05;;
73814;SDS011;62145;55.648;37.602;2023-04-01T12:56:28;12.18;;;5.13;;
73814;SDS011;62145;55.648;37.602;2023-04-01T12:59:24;14.90;;;5.50;;
73814;SDS011;62145;55.648;37.602;2023-04-01T13:07:48;15.57;;;5.75;;
73814;SDS011;62145;55.648;37.602;2023-04-01T13:16:45;12.38;;;5.07;;
73814;SDS011;62145;55.648;37.602;2023-04-01T13:19:42;12.55;;;4.70;;
73814;SDS011;62145;55.648;37.602;2023-04-01T13:35:49;13.43;;;4.72;;
73814;SDS011;62145;55.648;37.602;2023-04-01T13:40:58;11.20;;;4.63;;
73814;SDS011;62145;55.648;37.602;2023-04-01T13:59:02;12.00;;;4.70;;
73814;SDS011;62145;55.648;37.602;2023-04-01T14:12:04;14.13;;;5.65;;
73814;SDS011;62145;55.648;37.602;2023-04-01T14:20:53;15.13;;;5.60;;
73814;SDS011;62145;55.648;37.602;2023-04-01T14:23:32;12.50;;;5.70;;
73814;SDS011;62145;55.648;37.602;2023-04-01T14:37:15;12.60;;;6.30;;
73814;SDS011;62145;55.648;37.602;2023-04-01T14:42:50;17.10;;;6.80;;
73814;SDS011;62145;55.648;37.602;2023-04-01T14:51:20;14.95;;;6.28;;
73814;SDS011;62145;55.648;37.602;2023-04-01T14:56:43;14.23;;;6.88;;
73814;SDS011;62145;55.648;37.602;2023-04-01T14:59:14;16.90;;;7.10;;
73814;SDS011;62145;55.648;37.602;2023-04-01T15:01:50;17.63;;;7.30;;
73814;SDS011;62145;55.648;37.602;2023-04-01T15:15:21;15.97;;;7.70;;
73814;SDS011;62145;55.648;37.602;2023-04-01T15:24:06;17.65;;;7.95;;
73814;SDS011;62145;55.648;37.602;2023-04-01T15:32:02;16.25;;;8.45;;
73814;SDS011;62145;55.648;37.602;2023-04-01T15:52:06;16.27;;;8.20;;
73814;SDS011;62145;55.648;37.602;2023-04-01T16:00:28;18.25;;;8.60;;
73814;SDS011;62145;55.648;37.602;2023-04-01T16:08:28;18.85;;;8.18;;
73814;SDS011;62145;55.648;37.602;2023-04-01T16:19:39;15.73;;;7.80;;
73814;SDS011;62145;55.648;37.602;2023-04-01T16:22:32;17.30;;;8.25;;
73814;SDS011;62145;55.648;37.602;2023-04-01T16:27:36;15.52;;;7.65;;
73814;SDS011;62145;55.648;37.602;2023-04-01T16:33:12;16.15;;;7.90;;
73814;SDS011;62145;55.648;37.602;2023-04-01T16:35:47;16.83;;;8.60;;
73814;SDS011;62145;55.648;37.602;2023-04-01T16:49:03;17.98;;;8.45;;
73814;SDS011;62145;55.648;37.602;2023-04-01T16:54:28;17.60;;;8.20;;
73814;SDS011;62145;55.648;37.602;2023-04-01T16:59:57;19.17;;;8.10;;
73814;SDS011;62145;55.648;37.602;2023-04-01T17:02:38;16.40;;;8.23;;
73814;SDS011;62145;55.648;37.602;2023-04-01T17:05:11;16.63;;;7.60;;
73814;SDS011;62145;55.648;37.602;2023-04-01T17:18:00;19.25;;;8.70;;
73814;SDS011;62145;55.648;37.602;2023-04-01T17:28:48;15.23;;;7.50;;
73814;SDS011;62145;55.648;37.602;2023-04-01T17:31:27;16.05;;;7.68;;
73814;SDS011;62145;55.648;37.602;2023-04-01T17:37:02;17.02;;;7.45;;
73814;SDS011;62145;55.648;37.602;2023-04-01T17:49:50;16.43;;;8.60;;
73814;SDS011;62145;55.648;37.602;2023-04-01T17:57:54;18.35;;;9.15;;
73814;SDS011;62145;55.648;37.602;2023-04-01T18:06:14;19.98;;;8.85;;
73814;SDS011;62145;55.648;37.602;2023-04-01T18:17:04;22.77;;;10.50;;
73814;SDS011;62145;55.648;37.602;2023-04-01T18:22:23;19.60;;;9.73;;
73814;SDS011;62145;55.648;37.602;2023-04-01T18:25:14;20.17;;;9.13;;
73814;SDS011;62145;55.648;37.602;2023-04-01T18:27:44;21.95;;;9.77;;
73814;SDS011;62145;55.648;37.602;2023-04-01T18:30:26;18.03;;;8.33;;
73814;SDS011;62145;55.648;37.602;2023-04-01T18:32:59;19.48;;;9.40;;
73814;SDS011;62145;55.648;37.602;2023-04-01T18:38:55;18.95;;;9.25;;
73814;SDS011;62145;55.648;37.602;2023-04-01T18:41:30;20.63;;;10.20;;
73814;SDS011;62145;55.648;37.602;2023-04-01T18:52:42;19.90;;;9.30;;
73814;SDS011;62145;55.648;37.602;2023-04-01T18:55:24;19.58;;;9.73;;
73814;SDS011;62145;55.648;37.602;2023-04-01T18:58:11;21.33;;;9.53;;
73814;SDS011;62145;55.648;37.602;2023-04-01T19:03:55;21.73;;;9.95;;
73814;SDS011;62145;55.648;37.602;2023-04-01T19:06:44;22.48;;;9.98;;
73814;SDS011;62145;55.648;37.602;2023-04-01T19:09:18;22.58;;;9.95;;
73814;SDS011;62145;55.648;37.602;2023-04-01T19:20:50;20.27;;;9.75;;
73814;SDS011;62145;55.648;37.602;2023-04-01T19:25:23;21.73;;;9.27;;
73814;SDS011;62145;55.648;37.602;2023-04-01T19:27:52;19.95;;;9.90;;
73814;SDS011;62145;55.648;37.602;2023-04-01T19:32:53;20.17;;;10.25;;
73814;SDS011;62145;55.648;37.602;2023-04-01T19:46:49;22.95;;;10.43;;
73814;SDS011;62145;55.648;37.602;2023-04-01T19:51:57;24.93;;;10.37;;
73814;SDS011;62145;55.648;37.602;2023-04-01T19:54:30;21.25;;;10.38;;
73814;SDS011;62145;55.648;37.602;2023-04-01T19:57:18;20.42;;;10.38;;
73814;SDS011;62145;55.648;37.602;2023-04-01T20:11:37;25.70;;;11.10;;
73814;SDS011;62145;55.648;37.602;2023-04-01T20:16:37;24.42;;;10.88;;
73814;SDS011;62145;55.648;37.602;2023-04-01T20:19:06;23.40;;;9.90;;
73814;SDS011;62145;55.648;37.602;2023-04-01T20:21:37;23.88;;;11.40;;
73814;SDS011;62145;55.648;37.602;2023-04-01T20:24:14;21.17;;;11.20;;
73814;SDS011;62145;55.648;37.602;2023-04-01T20:27:02;23.00;;;10.05;;
73814;SDS011;62145;55.648;37.602;2023-04-01T20:37:40;22.70;;;9.98;;
73814;SDS011;62145;55.648;37.602;2023-04-01T20:48:50;24.05;;;10.25;;
73814;SDS011;62145;55.648;37.602;2023-04-01T20:51:39;25.35;;;10.35;;
73814;SDS011;62145;55.648;37.602;2023-04-01T21:05:45;21.52;;;10.00;;
73814;SDS011;62145;55.648;37.602;2023-04-01T21:08:27;23.70;;;10.50;;
73814;SDS011;62145;55.648;37.602;2023-04-01T21:11:56;22.35;;;9.93;;
73814;SDS011;62145;55.648;37.602;2023-04-01T21:25:51;21.13;;;9.73;;
73814;SDS011;62145;55.648;37.602;2023-04-01T21:34:12;22.20;;;9.55;;
73814;SDS011;62145;55.648;37.602;2023-04-01T21:45:37;23.55;;;9.70;;
73814;SDS011;62145;55.648;37.602;2023-04-01T21:48:27;21.75;;;10.23;;
73814;SDS011;62145;55.648;37.602;2023-04-01T21:54:27;22.13;;;10.52;;
73814;SDS011;62145;55.648;37.602;2023-04-01T22:21:52;26.67;;;11.20;;
73814;SDS011;62145;55.648;37.602;2023-04-01T22:27:34;25.25;;;10.90;;
73814;SDS011;62145;55.648;37.602;2023-04-01T22:43:41;27.80;;;11.23;;
73814;SDS011;62145;55.648;37.602;2023-04-01T22:46:20;27.25;;;11.32;;
73814;SDS011;62145;55.648;37.602;2023-04-01T22:49:15;23.95;;;11.02;;
73814;SDS011;62145;55.648;37.602;2023-04-01T22:51:57;28.13;;;11.98;;
73814;SDS011;62145;55.648;37.602;2023-04-01T22:54:29;24.77;;;11.02;;
73814;SDS011;62145;55.648;37.602;2023-04-01T22:57:08;26.75;;;11.23;;
73814;SDS011;62145;55.648;37.602;2023-04-01T23:02:15;26.77;;;11.50;;
73814;SDS011;62145;55.648;37.602;2023-04-01T23:04:45;29.08;;;12.25;;
73814;SDS011;62145;55.648;37.602;2023-04-01T23:09:57;29.48;;;11.65;;
73814;SDS011;62145;55.648;37.602;2023-04-01T23:12:24;31.00;;;12.45;;
73814;SDS011;62145;55.648;37.602;2023-04-01T23:17:30;30.67;;;12.07;;
73814;SDS011;62145;55.648;37.602;2023-04-01T23:35:48;29.13;;;12.53;;
73814;SDS011;62145;55.648;37.602;2023-04-01T23:38:31;26.33;;;11.30;;
73814;SDS011;62145;55.648;37.602;2023-04-01T23:41:02;34.17;;;13.35;;
73814;SDS011;62145;55.648;37.602;2023-04-01T23:43:30;31.52;;;12.85;;
73814;SDS011;62145;55.648;37.602;2023-04-01T23:45:58;28.40;;;12.65;;
73814;SDS011;62145;55.648;37.602;2023-04-01T23:48:39;28.87;;;12.30;;
73814;SDS011;62145;55.648;37.602;2023-04-01T23:51:21;28.70;;;12.10;;
73814;SDS011;62145;55.648;37.602;2023-04-01T23:53:55;34.30;;;12.85;;
73814;SDS011;62145;55.648;37.602;2023-04-01T23:56:34;30.92;;;12.82;;
73814;SDS011;62145;55.648;37.602;2023-04-01T23:59:03;29.38;;;12.13;;
